PWSweather.com
Personal Weather Stations
Station Observations
BARMORENO
El Ranal, Torre Del CampoES 23640

El RanalTorre Del CampoES 23640

Lat: 37.7683675, Lon: -3.9027072

Elevation: 2198.162

Station Type: PCE-FWS 20

http://www.bartolomemoreno.com/tiempo

High Low Average
Temperature 60.3°F15.7°F 39.0°F3.9°F 50.8°F10.4°F
Dew Point 38.7°F3.7°F 26.8°F-2.9°F 32.1°F0.1°F
Winds 5.8 mph -9.3 mph - 0.2 mph 0.3 mph 3.0 mph 4.8 mph
Wind Gusts 13.6 mph21.9 mph 1.6 mph2.6 mph 6.3 mph10.1 mph
Humidity 83% 29% 50%
Pressure 30.16 in1021.30 in 30.08 in1018.60 in -
Precipitation 0.00 in0.00 in - -
Hour Temp Dew Point Humidity Winds Wind Gusts Pressure Precip Precip Rate Daily Precip Total
12:00 AM 51.4°F10.8°C 29.1°F-1.6°C 42% 3.1 mph SE5.0 kmh SE 7.6 mph12.2 kmh 30.13 in1020.3 mb 0.00 in0.0 mm 0.00 in0.0 mm 0.00 in0.0 mm
12:05 AM 51.6°F10.9°C 28.7°F-1.8°C 41% 3.5 mph SSE5.6 kmh SSE 7.6 mph12.2 kmh 30.13 in1020.3 mb 0.00 in0.0 mm 0.00 in0.0 mm 0.00 in0.0 mm
12:10 AM 51.6°F10.9°C 29.3°F-1.5°C 42% 3.2 mph S5.1 kmh S 5.4 mph8.7 kmh 30.13 in1020.3 mb 0.00 in0.0 mm 0.00 in0.0 mm 0.00 in0.0 mm
12:15 AM 51.6°F10.9°C 29.3°F-1.5°C 42% 3.5 mph S5.6 kmh S 6.0 mph9.7 kmh 30.13 in1020.3 mb 0.00 in0.0 mm 0.00 in0.0 mm 0.00 in0.0 mm
12:20 AM 51.6°F10.9°C 29.3°F-1.5°C 42% 3.3 mph S5.3 kmh S 6.0 mph9.7 kmh 30.13 in1020.3 mb 0.00 in0.0 mm 0.00 in0.0 mm 0.00 in0.0 mm
12:25 AM 51.8°F11.0°C 28.3°F-2.1°C 40% 3.3 mph S5.3 kmh S 6.0 mph9.7 kmh 30.12 in1020.0 mb 0.00 in0.0 mm 0.00 in0.0 mm 0.00 in0.0 mm
12:30 AM 51.6°F10.9°C 28.7°F-1.8°C 41% 3.7 mph S6.0 kmh S 6.0 mph9.7 kmh 30.13 in1020.3 mb 0.00 in0.0 mm 0.00 in0.0 mm 0.00 in0.0 mm
12:35 AM 51.3°F10.7°C 29.0°F-1.7°C 42% 3.4 mph S5.5 kmh S 6.0 mph9.7 kmh 30.13 in1020.3 mb 0.00 in0.0 mm 0.00 in0.0 mm 0.00 in0.0 mm
12:40 AM 51.6°F10.9°C 29.3°F-1.5°C 42% 2.9 mph SSE4.7 kmh SSE 6.0 mph9.7 kmh 30.13 in1020.3 mb 0.00 in0.0 mm 0.00 in0.0 mm 0.00 in0.0 mm
12:45 AM 52.0°F11.1°C 28.4°F-2.0°C 40% 2.6 mph SE4.2 kmh SE 8.3 mph13.4 kmh 30.12 in1020.0 mb 0.00 in0.0 mm 0.00 in0.0 mm 0.00 in0.0 mm
12:50 AM 52.0°F11.1°C 28.4°F-2.0°C 40% 2.3 mph SE3.7 kmh SE 8.3 mph13.4 kmh 30.12 in1020.0 mb 0.00 in0.0 mm 0.00 in0.0 mm 0.00 in0.0 mm
12:55 AM 51.8°F11.0°C 28.3°F-2.1°C 40% 2.3 mph SE3.7 kmh SE 5.4 mph8.7 kmh 30.12 in1020.0 mb 0.00 in0.0 mm 0.00 in0.0 mm 0.00 in0.0 mm
01:00 AM 51.8°F11.0°C 28.3°F-2.1°C 40% 3.3 mph SE5.3 kmh SE 5.4 mph8.7 kmh 30.12 in1020.0 mb 0.00 in0.0 mm 0.00 in0.0 mm 0.00 in0.0 mm
01:05 AM 51.8°F11.0°C 28.3°F-2.1°C 40% 3.8 mph SE6.1 kmh SE 5.4 mph8.7 kmh 30.12 in1020.0 mb 0.00 in0.0 mm 0.00 in0.0 mm 0.00 in0.0 mm
01:10 AM 51.8°F11.0°C 28.3°F-2.1°C 40% 3.8 mph SE6.1 kmh SE 5.4 mph8.7 kmh 30.12 in1020.0 mb 0.00 in0.0 mm 0.00 in0.0 mm 0.00 in0.0 mm
01:15 AM 51.8°F11.0°C 28.3°F-2.1°C 40% 3.8 mph SE6.1 kmh SE 5.4 mph8.7 kmh 30.12 in1020.0 mb 0.00 in0.0 mm 0.00 in0.0 mm 0.00 in0.0 mm
01:20 AM 48.6°F9.2°C 29.3°F-1.5°C 47% 2.2 mph S3.5 kmh S 3.1 mph5.0 kmh 30.12 in1020.0 mb 0.00 in0.0 mm 0.00 in0.0 mm 0.00 in0.0 mm
01:25 AM 49.1°F9.5°C 29.8°F-1.2°C 47% 2.3 mph S3.7 kmh S 4.5 mph7.2 kmh 30.12 in1020.0 mb 0.00 in0.0 mm 0.00 in0.0 mm 0.00 in0.0 mm
01:30 AM 48.9°F9.4°C 29.6°F-1.3°C 47% 2.3 mph S3.7 kmh S 4.5 mph7.2 kmh 30.12 in1020.0 mb 0.00 in0.0 mm 0.00 in0.0 mm 0.00 in0.0 mm
01:35 AM 48.4°F9.1°C 29.1°F-1.6°C 47% 2.4 mph S3.9 kmh S 4.5 mph7.2 kmh 30.12 in1020.0 mb 0.00 in0.0 mm 0.00 in0.0 mm 0.00 in0.0 mm
01:40 AM 48.6°F9.2°C 29.3°F-1.5°C 47% 2.8 mph S4.5 kmh S 5.4 mph8.7 kmh 30.12 in1020.0 mb 0.00 in0.0 mm 0.00 in0.0 mm 0.00 in0.0 mm
01:45 AM 48.9°F9.4°C 29.1°F-1.6°C 46% 3.5 mph S5.6 kmh S 5.4 mph8.7 kmh 30.12 in1020.0 mb 0.00 in0.0 mm 0.00 in0.0 mm 0.00 in0.0 mm
01:50 AM 48.9°F9.4°C 29.1°F-1.6°C 46% 3.2 mph S5.1 kmh S 5.4 mph8.7 kmh 30.12 in1020.0 mb 0.00 in0.0 mm 0.00 in0.0 mm 0.00 in0.0 mm
01:55 AM 49.5°F9.7°C 29.6°F-1.3°C 46% 2.8 mph S4.5 kmh S 5.4 mph8.7 kmh 30.11 in1019.6 mb 0.00 in0.0 mm 0.00 in0.0 mm 0.00 in0.0 mm
02:00 AM 49.8°F9.9°C 29.3°F-1.5°C 45% 3.3 mph S5.3 kmh S 7.6 mph12.2 kmh 30.12 in1020.0 mb 0.00 in0.0 mm 0.00 in0.0 mm 0.00 in0.0 mm
02:05 AM 49.8°F9.9°C 29.3°F-1.5°C 45% 4.5 mph SSW7.2 kmh SSW 7.6 mph12.2 kmh 30.11 in1019.6 mb 0.00 in0.0 mm 0.00 in0.0 mm 0.00 in0.0 mm
02:10 AM 49.8°F9.9°C 29.3°F-1.5°C 45% 5.4 mph SSW8.7 kmh SSW 7.6 mph12.2 kmh 30.11 in1019.6 mb 0.00 in0.0 mm 0.00 in0.0 mm 0.00 in0.0 mm
02:15 AM 49.8°F9.9°C 29.3°F-1.5°C 45% 5.4 mph SSW8.7 kmh SSW 7.6 mph12.2 kmh 30.11 in1019.6 mb 0.00 in0.0 mm 0.00 in0.0 mm 0.00 in0.0 mm
02:20 AM 49.8°F9.9°C 29.3°F-1.5°C 45% 5.4 mph SSW8.7 kmh SSW 7.6 mph12.2 kmh 30.12 in1020.0 mb 0.00 in0.0 mm 0.00 in0.0 mm 0.00 in0.0 mm
02:25 AM 49.8°F9.9°C 29.3°F-1.5°C 45% 5.4 mph SSW8.7 kmh SSW 7.6 mph12.2 kmh 30.11 in1019.6 mb 0.00 in0.0 mm 0.00 in0.0 mm 0.00 in0.0 mm
02:30 AM 49.8°F9.9°C 29.3°F-1.5°C 45% 5.4 mph SSW8.7 kmh SSW 7.6 mph12.2 kmh 30.12 in1020.0 mb 0.00 in0.0 mm 0.00 in0.0 mm 0.00 in0.0 mm
02:35 AM 49.8°F9.9°C 29.3°F-1.5°C 45% 5.4 mph SSW8.7 kmh SSW 7.6 mph12.2 kmh 30.12 in1020.0 mb 0.00 in0.0 mm 0.00 in0.0 mm 0.00 in0.0 mm
02:40 AM 49.8°F9.9°C 29.3°F-1.5°C 45% 5.4 mph SSW8.7 kmh SSW 7.6 mph12.2 kmh 30.12 in1020.0 mb 0.00 in0.0 mm 0.00 in0.0 mm 0.00 in0.0 mm
02:45 AM 49.8°F9.9°C 29.3°F-1.5°C 45% 5.4 mph SSW8.7 kmh SSW 7.6 mph12.2 kmh 30.12 in1020.0 mb 0.00 in0.0 mm 0.00 in0.0 mm 0.00 in0.0 mm
02:50 AM 49.8°F9.9°C 29.3°F-1.5°C 45% 5.4 mph SSW8.7 kmh SSW 7.6 mph12.2 kmh 30.12 in1020.0 mb 0.00 in0.0 mm 0.00 in0.0 mm 0.00 in0.0 mm
02:55 AM 49.8°F9.9°C 29.3°F-1.5°C 45% 5.4 mph SSW8.7 kmh SSW 7.6 mph12.2 kmh 30.12 in1020.0 mb 0.00 in0.0 mm 0.00 in0.0 mm 0.00 in0.0 mm
03:00 AM 49.8°F9.9°C 29.3°F-1.5°C 45% 5.4 mph SSW8.7 kmh SSW 7.6 mph12.2 kmh 30.12 in1020.0 mb 0.00 in0.0 mm 0.00 in0.0 mm 0.00 in0.0 mm
03:05 AM 46.9°F8.3°C 28.8°F-1.8°C 49% 1.6 mph SW2.6 kmh SW 3.1 mph5.0 kmh 30.11 in1019.6 mb 0.00 in0.0 mm 0.00 in0.0 mm 0.00 in0.0 mm
03:10 AM 46.0°F7.8°C 28.5°F-1.9°C 50% 1.7 mph SSW2.7 kmh SSW 4.5 mph7.2 kmh 30.11 in1019.6 mb 0.00 in0.0 mm 0.00 in0.0 mm 0.00 in0.0 mm
03:15 AM 45.5°F7.5°C 28.4°F-2.0°C 51% 2.0 mph S3.2 kmh S 4.5 mph7.2 kmh 30.11 in1019.6 mb 0.00 in0.0 mm 0.00 in0.0 mm 0.00 in0.0 mm
03:20 AM 45.1°F7.3°C 28.1°F-2.2°C 51% 1.8 mph S2.9 kmh S 4.5 mph7.2 kmh 30.11 in1019.6 mb 0.00 in0.0 mm 0.00 in0.0 mm 0.00 in0.0 mm
03:25 AM 45.1°F7.3°C 28.6°F-1.9°C 52% 1.9 mph S3.1 kmh S 3.8 mph6.1 kmh 30.10 in1019.3 mb 0.00 in0.0 mm 0.00 in0.0 mm 0.00 in0.0 mm
03:30 AM 44.8°F7.1°C 28.2°F-2.1°C 52% 2.3 mph S3.7 kmh S 3.8 mph6.1 kmh 30.11 in1019.6 mb 0.00 in0.0 mm 0.00 in0.0 mm 0.00 in0.0 mm
03:35 AM 44.8°F7.1°C 28.2°F-2.1°C 52% 2.2 mph S3.5 kmh S 3.8 mph6.1 kmh 30.10 in1019.3 mb 0.00 in0.0 mm 0.00 in0.0 mm 0.00 in0.0 mm
03:40 AM 44.8°F7.1°C 28.2°F-2.1°C 52% 2.2 mph S3.5 kmh S 3.8 mph6.1 kmh 30.11 in1019.6 mb 0.00 in0.0 mm 0.00 in0.0 mm 0.00 in0.0 mm
03:45 AM 44.4°F6.9°C 28.8°F-1.8°C 54% 2.3 mph S3.7 kmh S 5.4 mph8.7 kmh 30.11 in1019.6 mb 0.00 in0.0 mm 0.00 in0.0 mm 0.00 in0.0 mm
03:50 AM 44.4°F6.9°C 28.8°F-1.8°C 54% 3.3 mph S5.3 kmh S 5.4 mph8.7 kmh 30.11 in1019.6 mb 0.00 in0.0 mm 0.00 in0.0 mm 0.00 in0.0 mm
03:55 AM 43.9°F6.6°C 28.8°F-1.8°C 55% 3.7 mph S6.0 kmh S 5.4 mph8.7 kmh 30.11 in1019.6 mb 0.00 in0.0 mm 0.00 in0.0 mm 0.00 in0.0 mm
04:00 AM 43.9°F6.6°C 28.8°F-1.8°C 55% 2.9 mph S4.7 kmh S 5.4 mph8.7 kmh 30.11 in1019.6 mb 0.00 in0.0 mm 0.00 in0.0 mm 0.00 in0.0 mm
04:05 AM 43.9°F6.6°C 29.2°F-1.6°C 56% 2.3 mph S3.7 kmh S 4.5 mph7.2 kmh 30.11 in1019.6 mb 0.00 in0.0 mm 0.00 in0.0 mm 0.00 in0.0 mm
04:10 AM 43.9°F6.6°C 29.2°F-1.6°C 56% 2.8 mph S4.5 kmh S 4.5 mph7.2 kmh 30.10 in1019.3 mb 0.00 in0.0 mm 0.00 in0.0 mm 0.00 in0.0 mm
04:15 AM 43.9°F6.6°C 29.2°F-1.6°C 56% 3.1 mph S5.0 kmh S 4.5 mph7.2 kmh 30.10 in1019.3 mb 0.00 in0.0 mm 0.00 in0.0 mm 0.00 in0.0 mm
04:20 AM 43.9°F6.6°C 29.2°F-1.6°C 56% 3.1 mph S5.0 kmh S 4.5 mph7.2 kmh 30.10 in1019.3 mb 0.00 in0.0 mm 0.00 in0.0 mm 0.00 in0.0 mm
04:25 AM 43.9°F6.6°C 29.2°F-1.6°C 56% 3.1 mph S5.0 kmh S 4.5 mph7.2 kmh 30.10 in1019.3 mb 0.00 in0.0 mm 0.00 in0.0 mm 0.00 in0.0 mm
04:30 AM 43.9°F6.6°C 29.2°F-1.6°C 56% 3.1 mph S5.0 kmh S 4.5 mph7.2 kmh 30.10 in1019.3 mb 0.00 in0.0 mm 0.00 in0.0 mm 0.00 in0.0 mm
04:35 AM 43.9°F6.6°C 29.2°F-1.6°C 56% 3.1 mph S5.0 kmh S 4.5 mph7.2 kmh 30.10 in1019.3 mb 0.00 in0.0 mm 0.00 in0.0 mm 0.00 in0.0 mm
04:40 AM 43.9°F6.6°C 29.2°F-1.6°C 56% 3.1 mph S5.0 kmh S 4.5 mph7.2 kmh 30.10 in1019.3 mb 0.00 in0.0 mm 0.00 in0.0 mm 0.00 in0.0 mm
04:45 AM 43.9°F6.6°C 29.2°F-1.6°C 56% 3.1 mph S5.0 kmh S 4.5 mph7.2 kmh 30.10 in1019.3 mb 0.00 in0.0 mm 0.00 in0.0 mm 0.00 in0.0 mm
04:50 AM 43.9°F6.6°C 29.2°F-1.6°C 56% 3.1 mph S5.0 kmh S 4.5 mph7.2 kmh 30.10 in1019.3 mb 0.00 in0.0 mm 0.00 in0.0 mm 0.00 in0.0 mm
04:55 AM 43.9°F6.6°C 29.2°F-1.6°C 56% 3.1 mph S5.0 kmh S 4.5 mph7.2 kmh 30.10 in1019.3 mb 0.00 in0.0 mm 0.00 in0.0 mm 0.00 in0.0 mm
05:00 AM 43.9°F6.6°C 29.2°F-1.6°C 56% 3.1 mph S5.0 kmh S 4.5 mph7.2 kmh 30.10 in1019.3 mb 0.00 in0.0 mm 0.00 in0.0 mm 0.00 in0.0 mm
05:05 AM 43.9°F6.6°C 29.2°F-1.6°C 56% 3.1 mph S5.0 kmh S 4.5 mph7.2 kmh 30.11 in1019.6 mb 0.00 in0.0 mm 0.00 in0.0 mm 0.00 in0.0 mm
05:10 AM 43.9°F6.6°C 29.2°F-1.6°C 56% 3.1 mph S5.0 kmh S 4.5 mph7.2 kmh 30.10 in1019.3 mb 0.00 in0.0 mm 0.00 in0.0 mm 0.00 in0.0 mm
05:15 AM 43.9°F6.6°C 29.2°F-1.6°C 56% 3.1 mph S5.0 kmh S 4.5 mph7.2 kmh 30.11 in1019.6 mb 0.00 in0.0 mm 0.00 in0.0 mm 0.00 in0.0 mm
05:20 AM 43.9°F6.6°C 29.2°F-1.6°C 56% 3.1 mph S5.0 kmh S 4.5 mph7.2 kmh 30.11 in1019.6 mb 0.00 in0.0 mm 0.00 in0.0 mm 0.00 in0.0 mm
05:25 AM 41.9°F5.5°C 30.2°F-1.0°C 63% 2.2 mph S3.5 kmh S 3.8 mph6.1 kmh 30.10 in1019.3 mb 0.00 in0.0 mm 0.00 in0.0 mm 0.00 in0.0 mm
05:30 AM 41.9°F5.5°C 30.2°F-1.0°C 63% 2.2 mph S3.5 kmh S 3.8 mph6.1 kmh 30.10 in1019.3 mb 0.00 in0.0 mm 0.00 in0.0 mm 0.00 in0.0 mm
05:35 AM 41.9°F5.5°C 30.2°F-1.0°C 63% 2.2 mph S3.5 kmh S 3.8 mph6.1 kmh 30.10 in1019.3 mb 0.00 in0.0 mm 0.00 in0.0 mm 0.00 in0.0 mm
05:40 AM 42.1°F5.6°C 30.8°F-0.7°C 64% 2.7 mph S4.3 kmh S 4.5 mph7.2 kmh 30.10 in1019.3 mb 0.00 in0.0 mm 0.00 in0.0 mm 0.00 in0.0 mm
05:45 AM 42.1°F5.6°C 30.8°F-0.7°C 64% 3.1 mph S5.0 kmh S 4.5 mph7.2 kmh 30.11 in1019.6 mb 0.00 in0.0 mm 0.00 in0.0 mm 0.00 in0.0 mm
05:50 AM 42.1°F5.6°C 30.8°F-0.7°C 64% 3.1 mph S5.0 kmh S 4.5 mph7.2 kmh 30.11 in1019.6 mb 0.00 in0.0 mm 0.00 in0.0 mm 0.00 in0.0 mm
05:55 AM 42.1°F5.6°C 30.8°F-0.7°C 64% 3.1 mph S5.0 kmh S 4.5 mph7.2 kmh 30.11 in1019.6 mb 0.00 in0.0 mm 0.00 in0.0 mm 0.00 in0.0 mm
06:00 AM 42.1°F5.6°C 30.8°F-0.7°C 64% 3.1 mph S5.0 kmh S 4.5 mph7.2 kmh 30.11 in1019.6 mb 0.00 in0.0 mm 0.00 in0.0 mm 0.00 in0.0 mm
06:05 AM 41.2°F5.1°C 30.7°F-0.7°C 66% 2.2 mph SE3.5 kmh SE 3.1 mph5.0 kmh 30.10 in1019.3 mb 0.00 in0.0 mm 0.00 in0.0 mm 0.00 in0.0 mm
06:10 AM 41.2°F5.1°C 30.7°F-0.7°C 66% 2.2 mph SE3.5 kmh SE 3.1 mph5.0 kmh 30.11 in1019.6 mb 0.00 in0.0 mm 0.00 in0.0 mm 0.00 in0.0 mm
06:15 AM 41.5°F5.3°C 31.8°F-0.1°C 68% 2.5 mph SE4.0 kmh SE 4.5 mph7.2 kmh 30.11 in1019.6 mb 0.00 in0.0 mm 0.00 in0.0 mm 0.00 in0.0 mm
06:20 AM 41.5°F5.3°C 31.4°F-0.3°C 67% 3.2 mph SSE5.1 kmh SSE 5.4 mph8.7 kmh 30.11 in1019.6 mb 0.00 in0.0 mm 0.00 in0.0 mm 0.00 in0.0 mm
06:25 AM 41.2°F5.1°C 31.1°F-0.5°C 67% 4.0 mph SE6.4 kmh SE 6.0 mph9.7 kmh 30.11 in1019.6 mb 0.00 in0.0 mm 0.00 in0.0 mm 0.00 in0.0 mm
06:30 AM 41.0°F5.0°C 31.3°F-0.4°C 68% 4.2 mph S6.8 kmh S 6.9 mph11.1 kmh 30.11 in1019.6 mb 0.00 in0.0 mm 0.00 in0.0 mm 0.00 in0.0 mm
06:35 AM 41.0°F5.0°C 31.3°F-0.4°C 68% 3.6 mph S5.8 kmh S 6.9 mph11.1 kmh 30.11 in1019.6 mb 0.00 in0.0 mm 0.00 in0.0 mm 0.00 in0.0 mm
06:40 AM 40.6°F4.8°C 31.6°F-0.2°C 70% 3.3 mph S5.3 kmh S 7.6 mph12.2 kmh 30.11 in1019.6 mb 0.00 in0.0 mm 0.00 in0.0 mm 0.00 in0.0 mm
06:45 AM 40.5°F4.7°C 31.8°F-0.1°C 71% 3.9 mph S6.3 kmh S 7.6 mph12.2 kmh 30.10 in1019.3 mb 0.00 in0.0 mm 0.00 in0.0 mm 0.00 in0.0 mm
06:50 AM 40.3°F4.6°C 32.0°F0.0°C 72% 3.9 mph S6.3 kmh S 7.6 mph12.2 kmh 30.11 in1019.6 mb 0.00 in0.0 mm 0.00 in0.0 mm 0.00 in0.0 mm
06:55 AM 40.5°F4.7°C 32.5°F0.3°C 73% 4.0 mph S6.4 kmh S 7.6 mph12.2 kmh 30.11 in1019.6 mb 0.00 in0.0 mm 0.00 in0.0 mm 0.00 in0.0 mm
07:00 AM 40.5°F4.7°C 32.5°F0.3°C 73% 4.1 mph S6.6 kmh S 7.6 mph12.2 kmh 30.11 in1019.6 mb 0.00 in0.0 mm 0.00 in0.0 mm 0.00 in0.0 mm
07:05 AM 40.6°F4.8°C 32.3°F0.2°C 72% 3.9 mph S6.3 kmh S 6.9 mph11.1 kmh 30.11 in1019.6 mb 0.00 in0.0 mm 0.00 in0.0 mm 0.00 in0.0 mm
07:10 AM 40.6°F4.8°C 32.3°F0.2°C 72% 3.3 mph S5.3 kmh S 6.9 mph11.1 kmh 30.11 in1019.6 mb 0.00 in0.0 mm 0.00 in0.0 mm 0.00 in0.0 mm
07:15 AM 40.6°F4.8°C 32.3°F0.2°C 72% 2.4 mph SSE3.9 kmh SSE 5.4 mph8.7 kmh 30.11 in1019.6 mb 0.00 in0.0 mm 0.00 in0.0 mm 0.00 in0.0 mm
07:20 AM 40.3°F4.6°C 32.0°F0.0°C 72% 2.8 mph SSE4.5 kmh SSE 5.4 mph8.7 kmh 30.11 in1019.6 mb 0.00 in0.0 mm 0.00 in0.0 mm 0.00 in0.0 mm
07:25 AM 40.1°F4.5°C 31.8°F-0.1°C 72% 3.5 mph S5.6 kmh S 5.4 mph8.7 kmh 30.11 in1019.6 mb 0.00 in0.0 mm 0.00 in0.0 mm 0.00 in0.0 mm
07:30 AM 40.1°F4.5°C 31.8°F-0.1°C 72% 4.2 mph S6.8 kmh S 5.4 mph8.7 kmh 30.11 in1019.6 mb 0.00 in0.0 mm 0.00 in0.0 mm 0.00 in0.0 mm
07:35 AM 40.1°F4.5°C 31.8°F-0.1°C 72% 4.5 mph S7.2 kmh S 5.4 mph8.7 kmh 30.11 in1019.6 mb 0.00 in0.0 mm 0.00 in0.0 mm 0.00 in0.0 mm
07:40 AM 39.4°F4.1°C 31.8°F-0.1°C 74% 4.0 mph S6.4 kmh S 5.4 mph8.7 kmh 30.11 in1019.6 mb 0.00 in0.0 mm 0.00 in0.0 mm 0.00 in0.0 mm
07:45 AM 39.4°F4.1°C 31.8°F-0.1°C 74% 1.9 mph S3.1 kmh S 3.1 mph5.0 kmh 30.11 in1019.6 mb 0.00 in0.0 mm 0.00 in0.0 mm 0.00 in0.0 mm
07:50 AM 39.0°F3.9°C 31.8°F-0.1°C 75% 2.0 mph SSW3.2 kmh SSW 3.8 mph6.1 kmh 30.11 in1019.6 mb 0.00 in0.0 mm 0.00 in0.0 mm 0.00 in0.0 mm
07:55 AM 39.4°F4.1°C 32.1°F0.1°C 75% 2.1 mph SW3.4 kmh SW 3.8 mph6.1 kmh 30.11 in1019.6 mb 0.00 in0.0 mm 0.00 in0.0 mm 0.00 in0.0 mm
08:00 AM 39.7°F4.3°C 32.5°F0.3°C 75% 1.9 mph S3.1 kmh S 3.1 mph5.0 kmh 30.12 in1020.0 mb 0.00 in0.0 mm 0.00 in0.0 mm 0.00 in0.0 mm
08:05 AM 40.5°F4.7°C 33.2°F0.7°C 75% 1.4 mph S2.3 kmh S 3.1 mph5.0 kmh 30.12 in1020.0 mb 0.00 in0.0 mm 0.00 in0.0 mm 0.00 in0.0 mm
08:10 AM 41.4°F5.2°C 33.7°F0.9°C 74% 0.8 mph SE1.3 kmh SE 3.1 mph5.0 kmh 30.12 in1020.0 mb 0.00 in0.0 mm 0.00 in0.0 mm 0.00 in0.0 mm
08:15 AM 42.4°F5.8°C 34.4°F1.3°C 73% 1.2 mph ENE1.9 kmh ENE 4.5 mph7.2 kmh 30.13 in1020.3 mb 0.00 in0.0 mm 0.00 in0.0 mm 0.00 in0.0 mm
08:20 AM 43.3°F6.3°C 34.6°F1.4°C 71% 1.0 mph ENE1.6 kmh ENE 4.5 mph7.2 kmh 30.13 in1020.3 mb 0.00 in0.0 mm 0.00 in0.0 mm 0.00 in0.0 mm
08:25 AM 44.1°F6.7°C 34.9°F1.6°C 70% 0.4 mph S0.6 kmh S 1.6 mph2.6 kmh 30.13 in1020.3 mb 0.00 in0.0 mm 0.00 in0.0 mm 0.00 in0.0 mm
08:30 AM 44.8°F7.1°C 34.1°F1.2°C 66% 0.6 mph SSW1.0 kmh SSW 1.6 mph2.6 kmh 30.13 in1020.3 mb 0.00 in0.0 mm 0.00 in0.0 mm 0.00 in0.0 mm
08:35 AM 45.7°F7.6°C 34.6°F1.4°C 65% 0.3 mph S0.5 kmh S 1.6 mph2.6 kmh 30.13 in1020.3 mb 0.00 in0.0 mm 0.00 in0.0 mm 0.00 in0.0 mm
08:40 AM 46.2°F7.9°C 34.3°F1.3°C 63% 0.4 mph E0.6 kmh E 2.2 mph3.5 kmh 30.13 in1020.3 mb 0.00 in0.0 mm 0.00 in0.0 mm 0.00 in0.0 mm
08:45 AM 46.4°F8.0°C 34.1°F1.2°C 62% 0.6 mph ENE1.0 kmh ENE 2.2 mph3.5 kmh 30.13 in1020.3 mb 0.00 in0.0 mm 0.00 in0.0 mm 0.00 in0.0 mm
08:50 AM 46.4°F8.0°C 33.7°F0.9°C 83% 0.8 mph NE1.3 kmh NE 3.1 mph5.0 kmh 30.13 in1020.3 mb 0.00 in0.0 mm 0.00 in0.0 mm 0.00 in0.0 mm
08:55 AM 45.9°F7.7°C 32.8°F0.4°C 60% 1.0 mph NE1.6 kmh NE 3.1 mph5.0 kmh 30.14 in1020.7 mb 0.00 in0.0 mm 0.00 in0.0 mm 0.00 in0.0 mm
09:00 AM 46.8°F8.2°C 33.6°F0.9°C 60% 0.5 mph ENE0.8 kmh ENE 3.1 mph5.0 kmh 30.14 in1020.7 mb 0.00 in0.0 mm 0.00 in0.0 mm 0.00 in0.0 mm
09:05 AM 47.8°F8.8°C 34.6°F1.4°C 60% 0.2 mph SSW0.3 kmh SSW 1.6 mph2.6 kmh 30.14 in1020.7 mb 0.00 in0.0 mm 0.00 in0.0 mm 0.00 in0.0 mm
09:10 AM 48.9°F9.4°C 34.8°F1.6°C 58% 0.2 mph SSW0.3 kmh SSW 2.2 mph3.5 kmh 30.14 in1020.7 mb 0.00 in0.0 mm 0.00 in0.0 mm 0.00 in0.0 mm
09:15 AM 49.3°F9.6°C 34.7°F1.5°C 57% 0.5 mph SSE0.8 kmh SSE 3.1 mph5.0 kmh 30.14 in1020.7 mb 0.00 in0.0 mm 0.00 in0.0 mm 0.00 in0.0 mm
09:20 AM 48.7°F9.3°C 33.3°F0.7°C 55% 0.9 mph SE1.4 kmh SE 3.1 mph5.0 kmh 30.14 in1020.7 mb 0.00 in0.0 mm 0.00 in0.0 mm 0.00 in0.0 mm
09:25 AM 48.6°F9.2°C 33.1°F0.6°C 55% 1.1 mph NW1.8 kmh NW 3.1 mph5.0 kmh 30.14 in1020.7 mb 0.00 in0.0 mm 0.00 in0.0 mm 0.00 in0.0 mm
09:30 AM 48.9°F9.4°C 33.9°F1.1°C 56% 0.9 mph NW1.4 kmh NW 2.2 mph3.5 kmh 30.14 in1020.7 mb 0.00 in0.0 mm 0.00 in0.0 mm 0.00 in0.0 mm
09:35 AM 49.3°F9.6°C 33.8°F1.0°C 55% 0.7 mph N1.1 kmh N 2.2 mph3.5 kmh 30.14 in1020.7 mb 0.00 in0.0 mm 0.00 in0.0 mm 0.00 in0.0 mm
09:40 AM 49.1°F9.5°C 33.6°F0.9°C 55% 0.8 mph NNW1.3 kmh NNW 2.2 mph3.5 kmh 30.14 in1020.7 mb 0.00 in0.0 mm 0.00 in0.0 mm 0.00 in0.0 mm
09:45 AM 49.5°F9.7°C 34.0°F1.1°C 55% 1.2 mph NNW1.9 kmh NNW 3.1 mph5.0 kmh 30.14 in1020.7 mb 0.00 in0.0 mm 0.00 in0.0 mm 0.00 in0.0 mm
09:50 AM 49.5°F9.7°C 34.0°F1.1°C 55% 1.8 mph N2.9 kmh N 3.8 mph6.1 kmh 30.14 in1020.7 mb 0.00 in0.0 mm 0.00 in0.0 mm 0.00 in0.0 mm
09:55 AM 50.0°F10.0°C 34.0°F1.1°C 54% 1.1 mph ENE1.8 kmh ENE 3.8 mph6.1 kmh 30.14 in1020.7 mb 0.00 in0.0 mm 0.00 in0.0 mm 0.00 in0.0 mm
10:00 AM 50.5°F10.3°C 34.5°F1.4°C 54% 0.5 mph S0.8 kmh S 2.2 mph3.5 kmh 30.14 in1020.7 mb 0.00 in0.0 mm 0.00 in0.0 mm 0.00 in0.0 mm
10:05 AM 50.9°F10.5°C 34.9°F1.6°C 54% 1.0 mph NNE1.6 kmh NNE 3.8 mph6.1 kmh 30.15 in1021.0 mb 0.00 in0.0 mm 0.00 in0.0 mm 0.00 in0.0 mm
10:10 AM 50.9°F10.5°C 34.9°F1.6°C 54% 1.5 mph NE2.4 kmh NE 4.5 mph7.2 kmh 30.15 in1021.0 mb 0.00 in0.0 mm 0.00 in0.0 mm 0.00 in0.0 mm
10:15 AM 50.7°F10.4°C 34.7°F1.5°C 54% 2.3 mph NE3.7 kmh NE 5.4 mph8.7 kmh 30.15 in1021.0 mb 0.00 in0.0 mm 0.00 in0.0 mm 0.00 in0.0 mm
10:20 AM 50.5°F10.3°C 34.5°F1.4°C 54% 2.9 mph NE4.7 kmh NE 5.4 mph8.7 kmh 30.15 in1021.0 mb 0.00 in0.0 mm 0.00 in0.0 mm 0.00 in0.0 mm
10:25 AM 50.4°F10.2°C 34.8°F1.6°C 55% 2.9 mph NE4.7 kmh NE 6.0 mph9.7 kmh 30.14 in1020.7 mb 0.00 in0.0 mm 0.00 in0.0 mm 0.00 in0.0 mm
10:30 AM 50.7°F10.4°C 35.2°F1.8°C 55% 2.8 mph NNE4.5 kmh NNE 6.0 mph9.7 kmh 30.14 in1020.7 mb 0.00 in0.0 mm 0.00 in0.0 mm 0.00 in0.0 mm
10:35 AM 51.1°F10.6°C 35.9°F2.2°C 56% 2.7 mph NE4.3 kmh NE 6.0 mph9.7 kmh 30.14 in1020.7 mb 0.00 in0.0 mm 0.00 in0.0 mm 0.00 in0.0 mm
10:40 AM 51.1°F10.6°C 35.5°F1.9°C 55% 2.6 mph NE4.2 kmh NE 5.4 mph8.7 kmh 30.14 in1020.7 mb 0.00 in0.0 mm 0.00 in0.0 mm 0.00 in0.0 mm
10:45 AM 50.4°F10.2°C 35.3°F1.8°C 56% 3.4 mph NE5.5 kmh NE 7.6 mph12.2 kmh 30.15 in1021.0 mb 0.00 in0.0 mm 0.00 in0.0 mm 0.00 in0.0 mm
10:50 AM 50.2°F10.1°C 35.5°F1.9°C 57% 3.8 mph N6.1 kmh N 7.6 mph12.2 kmh 30.14 in1020.7 mb 0.00 in0.0 mm 0.00 in0.0 mm 0.00 in0.0 mm
10:55 AM 50.0°F10.0°C 35.8°F2.1°C 58% 2.0 mph N3.2 kmh N 5.4 mph8.7 kmh 30.14 in1020.7 mb 0.00 in0.0 mm 0.00 in0.0 mm 0.00 in0.0 mm
11:00 AM 50.0°F10.0°C 36.2°F2.3°C 59% 1.1 mph NE1.8 kmh NE 5.4 mph8.7 kmh 30.15 in1021.0 mb 0.00 in0.0 mm 0.00 in0.0 mm 0.00 in0.0 mm
11:05 AM 50.2°F10.1°C 36.8°F2.7°C 60% 2.0 mph N3.2 kmh N 6.0 mph9.7 kmh 30.15 in1021.0 mb 0.00 in0.0 mm 0.00 in0.0 mm 0.00 in0.0 mm
11:10 AM 50.2°F10.1°C 37.3°F2.9°C 61% 2.5 mph N4.0 kmh N 6.0 mph9.7 kmh 30.15 in1021.0 mb 0.00 in0.0 mm 0.00 in0.0 mm 0.00 in0.0 mm
11:15 AM 50.2°F10.1°C 37.3°F2.9°C 61% 2.8 mph NE4.5 kmh NE 6.0 mph9.7 kmh 30.15 in1021.0 mb 0.00 in0.0 mm 0.00 in0.0 mm 0.00 in0.0 mm
11:20 AM 50.0°F10.0°C 37.5°F3.1°C 62% 3.6 mph NNE5.8 kmh NNE 7.6 mph12.2 kmh 30.15 in1021.0 mb 0.00 in0.0 mm 0.00 in0.0 mm 0.00 in0.0 mm
11:25 AM 50.0°F10.0°C 37.5°F3.1°C 62% 4.0 mph NNE6.4 kmh NNE 8.3 mph13.4 kmh 30.15 in1021.0 mb 0.00 in0.0 mm 0.00 in0.0 mm 0.00 in0.0 mm
11:30 AM 50.0°F10.0°C 37.5°F3.1°C 62% 3.4 mph NE5.5 kmh NE 8.3 mph13.4 kmh 30.15 in1021.0 mb 0.00 in0.0 mm 0.00 in0.0 mm 0.00 in0.0 mm
11:35 AM 50.2°F10.1°C 37.7°F3.2°C 62% 3.1 mph NE5.0 kmh NE 6.0 mph9.7 kmh 30.15 in1021.0 mb 0.00 in0.0 mm 0.00 in0.0 mm 0.00 in0.0 mm
11:40 AM 50.4°F10.2°C 37.8°F3.2°C 62% 2.8 mph NNE4.5 kmh NNE 6.0 mph9.7 kmh 30.15 in1021.0 mb 0.00 in0.0 mm 0.00 in0.0 mm 0.00 in0.0 mm
11:45 AM 50.5°F10.3°C 38.0°F3.3°C 62% 2.3 mph NE3.7 kmh NE 6.0 mph9.7 kmh 30.15 in1021.0 mb 0.00 in0.0 mm 0.00 in0.0 mm 0.00 in0.0 mm
11:50 AM 50.7°F10.4°C 38.2°F3.4°C 62% 2.5 mph ENE4.0 kmh ENE 6.0 mph9.7 kmh 30.15 in1021.0 mb 0.00 in0.0 mm 0.00 in0.0 mm 0.00 in0.0 mm
11:55 AM 51.1°F10.6°C 38.5°F3.6°C 62% 2.4 mph NE3.9 kmh NE 6.0 mph9.7 kmh 30.14 in1020.7 mb 0.00 in0.0 mm 0.00 in0.0 mm 0.00 in0.0 mm
12:00 PM 51.6°F10.9°C 38.6°F3.7°C 61% 1.9 mph NE3.1 kmh NE 5.4 mph8.7 kmh 30.14 in1020.7 mb 0.00 in0.0 mm 0.00 in0.0 mm 0.00 in0.0 mm
12:05 PM 52.2°F11.2°C 38.7°F3.7°C 60% 1.4 mph ENE2.3 kmh ENE 4.5 mph7.2 kmh 30.14 in1020.7 mb 0.00 in0.0 mm 0.00 in0.0 mm 0.00 in0.0 mm
12:10 PM 52.0°F11.1°C 37.7°F3.2°C 58% 1.9 mph ENE3.1 kmh ENE 4.5 mph7.2 kmh 30.15 in1021.0 mb 0.00 in0.0 mm 0.00 in0.0 mm 0.00 in0.0 mm
12:15 PM 52.0°F11.1°C 37.7°F3.2°C 58% 2.3 mph NE3.7 kmh NE 5.4 mph8.7 kmh 30.14 in1020.7 mb 0.00 in0.0 mm 0.00 in0.0 mm 0.00 in0.0 mm
12:20 PM 52.2°F11.2°C 37.8°F3.2°C 58% 1.9 mph NE3.1 kmh NE 5.4 mph8.7 kmh 30.14 in1020.7 mb 0.00 in0.0 mm 0.00 in0.0 mm 0.00 in0.0 mm
12:25 PM 52.5°F11.4°C 38.2°F3.4°C 58% 1.5 mph NNE2.4 kmh NNE 5.4 mph8.7 kmh 30.14 in1020.7 mb 0.00 in0.0 mm 0.00 in0.0 mm 0.00 in0.0 mm
12:30 PM 52.9°F11.6°C 38.1°F3.4°C 57% 1.9 mph NNW3.1 kmh NNW 4.5 mph7.2 kmh 30.14 in1020.7 mb 0.00 in0.0 mm 0.00 in0.0 mm 0.00 in0.0 mm
12:35 PM 53.6°F12.0°C 38.3°F3.5°C 56% 1.8 mph NW2.9 kmh NW 4.5 mph7.2 kmh 30.14 in1020.7 mb 0.00 in0.0 mm 0.00 in0.0 mm 0.00 in0.0 mm
12:40 PM 54.1°F12.3°C 38.3°F3.5°C 55% 1.5 mph NNW2.4 kmh NNW 5.4 mph8.7 kmh 30.14 in1020.7 mb 0.00 in0.0 mm 0.00 in0.0 mm 0.00 in0.0 mm
12:45 PM 54.5°F12.5°C 38.2°F3.4°C 54% 2.0 mph W3.2 kmh W 5.4 mph8.7 kmh 30.14 in1020.7 mb 0.00 in0.0 mm 0.00 in0.0 mm 0.00 in0.0 mm
12:50 PM 54.7°F12.6°C 38.4°F3.6°C 54% 1.4 mph SW2.3 kmh SW 5.4 mph8.7 kmh 30.14 in1020.7 mb 0.00 in0.0 mm 0.00 in0.0 mm 0.00 in0.0 mm
12:55 PM 54.5°F12.5°C 37.7°F3.2°C 53% 1.2 mph N1.9 kmh N 7.6 mph12.2 kmh 30.14 in1020.7 mb 0.00 in0.0 mm 0.00 in0.0 mm 0.00 in0.0 mm
01:00 PM 54.3°F12.4°C 37.6°F3.1°C 53% 1.8 mph N2.9 kmh N 7.6 mph12.2 kmh 30.13 in1020.3 mb 0.00 in0.0 mm 0.00 in0.0 mm 0.00 in0.0 mm
01:05 PM 54.5°F12.5°C 37.2°F2.9°C 52% 2.3 mph N3.7 kmh N 6.0 mph9.7 kmh 30.14 in1020.7 mb 0.00 in0.0 mm 0.00 in0.0 mm 0.00 in0.0 mm
01:10 PM 54.9°F12.7°C 38.1°F3.4°C 53% 1.8 mph NNE2.9 kmh NNE 5.4 mph8.7 kmh 30.14 in1020.7 mb 0.00 in0.0 mm 0.00 in0.0 mm 0.00 in0.0 mm
01:15 PM 54.9°F12.7°C 37.6°F3.1°C 52% 1.7 mph E2.7 kmh E 4.5 mph7.2 kmh 30.14 in1020.7 mb 0.00 in0.0 mm 0.00 in0.0 mm 0.00 in0.0 mm
01:20 PM 54.9°F12.7°C 37.1°F2.8°C 51% 2.4 mph NE3.9 kmh NE 4.5 mph7.2 kmh 30.14 in1020.7 mb 0.00 in0.0 mm 0.00 in0.0 mm 0.00 in0.0 mm
01:25 PM 54.9°F12.7°C 36.6°F2.6°C 50% 3.6 mph N5.8 kmh N 8.3 mph13.4 kmh 30.13 in1020.3 mb 0.00 in0.0 mm 0.00 in0.0 mm 0.00 in0.0 mm
01:30 PM 55.0°F12.8°C 36.2°F2.3°C 49% 4.1 mph N6.6 kmh N 8.3 mph13.4 kmh 30.13 in1020.3 mb 0.00 in0.0 mm 0.00 in0.0 mm 0.00 in0.0 mm
01:35 PM 55.2°F12.9°C 35.9°F2.2°C 48% 3.4 mph NE5.5 kmh NE 6.9 mph11.1 kmh 30.13 in1020.3 mb 0.00 in0.0 mm 0.00 in0.0 mm 0.00 in0.0 mm
01:40 PM 55.2°F12.9°C 34.8°F1.6°C 46% 4.3 mph NE6.9 kmh NE 9.2 mph14.8 kmh 30.13 in1020.3 mb 0.00 in0.0 mm 0.00 in0.0 mm 0.00 in0.0 mm
01:45 PM 55.4°F13.0°C 35.0°F1.7°C 46% 5.1 mph ENE8.2 kmh ENE 9.2 mph14.8 kmh 30.13 in1020.3 mb 0.00 in0.0 mm 0.00 in0.0 mm 0.00 in0.0 mm
01:50 PM 55.8°F13.2°C 34.8°F1.6°C 45% 4.7 mph NE7.6 kmh NE 9.2 mph14.8 kmh 30.12 in1020.0 mb 0.00 in0.0 mm 0.00 in0.0 mm 0.00 in0.0 mm
01:55 PM 55.9°F13.3°C 34.9°F1.6°C 45% 4.5 mph NE7.2 kmh NE 9.2 mph14.8 kmh 30.12 in1020.0 mb 0.00 in0.0 mm 0.00 in0.0 mm 0.00 in0.0 mm
02:00 PM 55.9°F13.3°C 34.9°F1.6°C 45% 4.3 mph NE6.9 kmh NE 9.2 mph14.8 kmh 30.12 in1020.0 mb 0.00 in0.0 mm 0.00 in0.0 mm 0.00 in0.0 mm
02:05 PM 56.1°F13.4°C 35.1°F1.7°C 45% 5.0 mph NE8.0 kmh NE 10.7 mph17.2 kmh 30.12 in1020.0 mb 0.00 in0.0 mm 0.00 in0.0 mm 0.00 in0.0 mm
02:10 PM 56.1°F13.4°C 35.1°F1.7°C 45% 4.6 mph NE7.4 kmh NE 10.7 mph17.2 kmh 30.11 in1019.6 mb 0.00 in0.0 mm 0.00 in0.0 mm 0.00 in0.0 mm
02:15 PM 56.3°F13.5°C 35.2°F1.8°C 45% 3.0 mph ENE4.8 kmh ENE 6.9 mph11.1 kmh 30.11 in1019.6 mb 0.00 in0.0 mm 0.00 in0.0 mm 0.00 in0.0 mm
02:20 PM 56.3°F13.5°C 34.7°F1.5°C 44% 3.7 mph NE6.0 kmh NE 9.8 mph15.8 kmh 30.11 in1019.6 mb 0.00 in0.0 mm 0.00 in0.0 mm 0.00 in0.0 mm
02:25 PM 56.3°F13.5°C 34.7°F1.5°C 44% 4.2 mph NE6.8 kmh NE 9.8 mph15.8 kmh 30.11 in1019.6 mb 0.00 in0.0 mm 0.00 in0.0 mm 0.00 in0.0 mm
02:30 PM 56.5°F13.6°C 34.3°F1.3°C 43% 3.0 mph ENE4.8 kmh ENE 9.8 mph15.8 kmh 30.11 in1019.6 mb 0.00 in0.0 mm 0.00 in0.0 mm 0.00 in0.0 mm
02:35 PM 56.3°F13.5°C 34.1°F1.2°C 43% 3.2 mph NE5.1 kmh NE 10.7 mph17.2 kmh 30.11 in1019.6 mb 0.00 in0.0 mm 0.00 in0.0 mm 0.00 in0.0 mm
02:40 PM 56.1°F13.4°C 33.9°F1.1°C 43% 4.0 mph N6.4 kmh N 10.7 mph17.2 kmh 30.11 in1019.6 mb 0.00 in0.0 mm 0.00 in0.0 mm 0.00 in0.0 mm
02:45 PM 56.1°F13.4°C 34.5°F1.4°C 44% 3.0 mph NNE4.8 kmh NNE 8.3 mph13.4 kmh 30.11 in1019.6 mb 0.00 in0.0 mm 0.00 in0.0 mm 0.00 in0.0 mm
02:50 PM 56.5°F13.6°C 34.3°F1.3°C 43% 2.8 mph NE4.5 kmh NE 12.1 mph19.5 kmh 30.11 in1019.6 mb 0.00 in0.0 mm 0.00 in0.0 mm 0.00 in0.0 mm
02:55 PM 56.5°F13.6°C 33.1°F0.6°C 41% 4.9 mph NE7.9 kmh NE 12.1 mph19.5 kmh 30.11 in1019.6 mb 0.00 in0.0 mm 0.00 in0.0 mm 0.00 in0.0 mm
03:00 PM 56.7°F13.7°C 33.2°F0.7°C 41% 5.1 mph NE8.2 kmh NE 12.1 mph19.5 kmh 30.10 in1019.3 mb 0.00 in0.0 mm 0.00 in0.0 mm 0.00 in0.0 mm
03:05 PM 56.8°F13.8°C 33.4°F0.8°C 41% 5.1 mph NE8.2 kmh NE 9.8 mph15.8 kmh 30.10 in1019.3 mb 0.00 in0.0 mm 0.00 in0.0 mm 0.00 in0.0 mm
03:10 PM 56.7°F13.7°C 32.6°F0.3°C 40% 5.7 mph ENE9.2 kmh ENE 9.8 mph15.8 kmh 30.10 in1019.3 mb 0.00 in0.0 mm 0.00 in0.0 mm 0.00 in0.0 mm
03:15 PM 56.7°F13.7°C 32.0°F0.0°C 39% 5.2 mph NE8.4 kmh NE 9.2 mph14.8 kmh 30.10 in1019.3 mb 0.00 in0.0 mm 0.00 in0.0 mm 0.00 in0.0 mm
03:20 PM 57.0°F13.9°C 32.3°F0.2°C 39% 5.1 mph NE8.2 kmh NE 9.2 mph14.8 kmh 30.10 in1019.3 mb 0.00 in0.0 mm 0.00 in0.0 mm 0.00 in0.0 mm
03:25 PM 57.2°F14.0°C 31.8°F-0.1°C 38% 3.9 mph NE6.3 kmh NE 8.3 mph13.4 kmh 30.09 in1019.0 mb 0.00 in0.0 mm 0.00 in0.0 mm 0.00 in0.0 mm
03:30 PM 57.2°F14.0°C 31.2°F-0.4°C 37% 3.1 mph S5.0 kmh S 6.0 mph9.7 kmh 30.09 in1019.0 mb 0.00 in0.0 mm 0.00 in0.0 mm 0.00 in0.0 mm
03:35 PM 57.4°F14.1°C 31.3°F-0.4°C 37% 3.3 mph SSE5.3 kmh SSE 7.6 mph12.2 kmh 30.09 in1019.0 mb 0.00 in0.0 mm 0.00 in0.0 mm 0.00 in0.0 mm
03:40 PM 57.4°F14.1°C 31.3°F-0.4°C 37% 4.0 mph E6.4 kmh E 8.3 mph13.4 kmh 30.09 in1019.0 mb 0.00 in0.0 mm 0.00 in0.0 mm 0.00 in0.0 mm
03:45 PM 57.4°F14.1°C 31.3°F-0.4°C 37% 3.9 mph NE6.3 kmh NE 8.3 mph13.4 kmh 30.09 in1019.0 mb 0.00 in0.0 mm 0.00 in0.0 mm 0.00 in0.0 mm
03:50 PM 57.4°F14.1°C 31.3°F-0.4°C 37% 3.0 mph NE4.8 kmh NE 6.0 mph9.7 kmh 30.09 in1019.0 mb 0.00 in0.0 mm 0.00 in0.0 mm 0.00 in0.0 mm
03:55 PM 58.1°F14.5°C 32.0°F0.0°C 37% 2.5 mph ENE4.0 kmh ENE 6.0 mph9.7 kmh 30.09 in1019.0 mb 0.00 in0.0 mm 0.00 in0.0 mm 0.00 in0.0 mm
04:00 PM 59.5°F15.3°C 32.6°F0.3°C 36% 1.3 mph E2.1 kmh E 5.4 mph8.7 kmh 30.09 in1019.0 mb 0.00 in0.0 mm 0.00 in0.0 mm 0.00 in0.0 mm
04:05 PM 60.3°F15.7°C 31.8°F-0.1°C 34% 2.5 mph E4.0 kmh E 9.8 mph15.8 kmh 30.09 in1019.0 mb 0.00 in0.0 mm 0.00 in0.0 mm 0.00 in0.0 mm
04:10 PM 59.5°F15.3°C 30.4°F-0.9°C 33% 5.4 mph ENE8.7 kmh ENE 9.8 mph15.8 kmh 30.09 in1019.0 mb 0.00 in0.0 mm 0.00 in0.0 mm 0.00 in0.0 mm
04:15 PM 59.2°F15.1°C 30.1°F-1.1°C 33% 5.8 mph NE9.3 kmh NE 9.8 mph15.8 kmh 30.08 in1018.6 mb 0.00 in0.0 mm 0.00 in0.0 mm 0.00 in0.0 mm
04:20 PM 59.4°F15.2°C 30.3°F-0.9°C 33% 4.1 mph ENE6.6 kmh ENE 9.8 mph15.8 kmh 30.08 in1018.6 mb 0.00 in0.0 mm 0.00 in0.0 mm 0.00 in0.0 mm
04:25 PM 59.4°F15.2°C 30.3°F-0.9°C 33% 4.6 mph NE7.4 kmh NE 13.6 mph21.9 kmh 30.08 in1018.6 mb 0.00 in0.0 mm 0.00 in0.0 mm 0.00 in0.0 mm
04:30 PM 59.0°F15.0°C 30.0°F-1.1°C 33% 5.7 mph NE9.2 kmh NE 13.6 mph21.9 kmh 30.08 in1018.6 mb 0.00 in0.0 mm 0.00 in0.0 mm 0.00 in0.0 mm
04:35 PM 59.0°F15.0°C 30.0°F-1.1°C 33% 4.8 mph NE7.7 kmh NE 13.6 mph21.9 kmh 30.08 in1018.6 mb 0.00 in0.0 mm 0.00 in0.0 mm 0.00 in0.0 mm
04:40 PM 58.6°F14.8°C 30.4°F-0.9°C 34% 4.9 mph NE7.9 kmh NE 8.3 mph13.4 kmh 30.08 in1018.6 mb 0.00 in0.0 mm 0.00 in0.0 mm 0.00 in0.0 mm
04:45 PM 58.1°F14.5°C 29.9°F-1.2°C 34% 4.7 mph NNE7.6 kmh NNE 8.3 mph13.4 kmh 30.08 in1018.6 mb 0.00 in0.0 mm 0.00 in0.0 mm 0.00 in0.0 mm
04:50 PM 58.3°F14.6°C 30.1°F-1.1°C 34% 4.5 mph NE7.2 kmh NE 9.2 mph14.8 kmh 30.08 in1018.6 mb 0.00 in0.0 mm 0.00 in0.0 mm 0.00 in0.0 mm
04:55 PM 58.3°F14.6°C 30.1°F-1.1°C 34% 4.8 mph ENE7.7 kmh ENE 9.2 mph14.8 kmh 30.08 in1018.6 mb 0.00 in0.0 mm 0.00 in0.0 mm 0.00 in0.0 mm
05:00 PM 58.6°F14.8°C 30.4°F-0.9°C 34% 4.4 mph ENE7.1 kmh ENE 8.3 mph13.4 kmh 30.08 in1018.6 mb 0.00 in0.0 mm 0.00 in0.0 mm 0.00 in0.0 mm
05:05 PM 59.2°F15.1°C 30.1°F-1.1°C 33% 4.5 mph ENE7.2 kmh ENE 10.7 mph17.2 kmh 30.08 in1018.6 mb 0.00 in0.0 mm 0.00 in0.0 mm 0.00 in0.0 mm
05:10 PM 59.2°F15.1°C 30.1°F-1.1°C 33% 3.8 mph E6.1 kmh E 10.7 mph17.2 kmh 30.08 in1018.6 mb 0.00 in0.0 mm 0.00 in0.0 mm 0.00 in0.0 mm
05:15 PM 59.5°F15.3°C 30.4°F-0.9°C 33% 3.1 mph E5.0 kmh E 8.3 mph13.4 kmh 30.08 in1018.6 mb 0.00 in0.0 mm 0.00 in0.0 mm 0.00 in0.0 mm
05:20 PM 59.5°F15.3°C 30.4°F-0.9°C 33% 4.0 mph E6.4 kmh E 8.3 mph13.4 kmh 30.08 in1018.6 mb 0.00 in0.0 mm 0.00 in0.0 mm 0.00 in0.0 mm
05:25 PM 59.4°F15.2°C 29.5°F-1.4°C 32% 4.9 mph E7.9 kmh E 8.3 mph13.4 kmh 30.08 in1018.6 mb 0.00 in0.0 mm 0.00 in0.0 mm 0.00 in0.0 mm
05:30 PM 59.4°F15.2°C 29.5°F-1.4°C 32% 4.2 mph E6.8 kmh E 8.3 mph13.4 kmh 30.08 in1018.6 mb 0.00 in0.0 mm 0.00 in0.0 mm 0.00 in0.0 mm
05:35 PM 59.5°F15.3°C 29.7°F-1.3°C 32% 3.5 mph ENE5.6 kmh ENE 7.6 mph12.2 kmh 30.09 in1019.0 mb 0.00 in0.0 mm 0.00 in0.0 mm 0.00 in0.0 mm
05:40 PM 59.5°F15.3°C 29.7°F-1.3°C 32% 3.9 mph NE6.3 kmh NE 8.3 mph13.4 kmh 30.08 in1018.6 mb 0.00 in0.0 mm 0.00 in0.0 mm 0.00 in0.0 mm
05:45 PM 59.5°F15.3°C 28.9°F-1.7°C 31% 3.8 mph E6.1 kmh E 8.3 mph13.4 kmh 30.09 in1019.0 mb 0.00 in0.0 mm 0.00 in0.0 mm 0.00 in0.0 mm
05:50 PM 59.5°F15.3°C 28.9°F-1.7°C 31% 3.0 mph E4.8 kmh E 7.6 mph12.2 kmh 30.09 in1019.0 mb 0.00 in0.0 mm 0.00 in0.0 mm 0.00 in0.0 mm
05:55 PM 59.4°F15.2°C 27.9°F-2.3°C 30% 3.2 mph ESE5.1 kmh ESE 9.2 mph14.8 kmh 30.09 in1019.0 mb 0.00 in0.0 mm 0.00 in0.0 mm 0.00 in0.0 mm
06:00 PM 59.4°F15.2°C 27.9°F-2.3°C 30% 2.8 mph SE4.5 kmh SE 9.2 mph14.8 kmh 30.09 in1019.0 mb 0.00 in0.0 mm 0.00 in0.0 mm 0.00 in0.0 mm
06:05 PM 59.5°F15.3°C 28.1°F-2.2°C 30% 2.9 mph ENE4.7 kmh ENE 9.8 mph15.8 kmh 30.09 in1019.0 mb 0.00 in0.0 mm 0.00 in0.0 mm 0.00 in0.0 mm
06:10 PM 59.5°F15.3°C 27.3°F-2.6°C 29% 4.6 mph NE7.4 kmh NE 9.8 mph15.8 kmh 30.09 in1019.0 mb 0.00 in0.0 mm 0.00 in0.0 mm 0.00 in0.0 mm
06:15 PM 59.4°F15.2°C 27.1°F-2.7°C 29% 4.7 mph NE7.6 kmh NE 9.8 mph15.8 kmh 30.09 in1019.0 mb 0.00 in0.0 mm 0.00 in0.0 mm 0.00 in0.0 mm
06:20 PM 59.4°F15.2°C 27.1°F-2.7°C 29% 4.2 mph ENE6.8 kmh ENE 9.2 mph14.8 kmh 30.09 in1019.0 mb 0.00 in0.0 mm 0.00 in0.0 mm 0.00 in0.0 mm
06:25 PM 59.4°F15.2°C 27.1°F-2.7°C 29% 4.4 mph NE7.1 kmh NE 11.4 mph18.3 kmh 30.09 in1019.0 mb 0.00 in0.0 mm 0.00 in0.0 mm 0.00 in0.0 mm
06:30 PM 59.2°F15.1°C 27.0°F-2.8°C 29% 3.6 mph NE5.8 kmh NE 11.4 mph18.3 kmh 30.09 in1019.0 mb 0.00 in0.0 mm 0.00 in0.0 mm 0.00 in0.0 mm
06:35 PM 59.0°F15.0°C 26.8°F-2.9°C 29% 2.8 mph ENE4.5 kmh ENE 8.3 mph13.4 kmh 30.09 in1019.0 mb 0.00 in0.0 mm 0.00 in0.0 mm 0.00 in0.0 mm
06:40 PM 58.8°F14.9°C 27.5°F-2.5°C 30% 2.5 mph NE4.0 kmh NE 8.3 mph13.4 kmh 30.09 in1019.0 mb 0.00 in0.0 mm 0.00 in0.0 mm 0.00 in0.0 mm
06:45 PM 58.8°F14.9°C 27.5°F-2.5°C 30% 2.0 mph NE3.2 kmh NE 7.6 mph12.2 kmh 30.09 in1019.0 mb 0.00 in0.0 mm 0.00 in0.0 mm 0.00 in0.0 mm
06:50 PM 58.8°F14.9°C 27.5°F-2.5°C 30% 3.2 mph NE5.1 kmh NE 7.6 mph12.2 kmh 30.10 in1019.3 mb 0.00 in0.0 mm 0.00 in0.0 mm 0.00 in0.0 mm
06:55 PM 58.6°F14.8°C 27.3°F-2.6°C 30% 4.8 mph ENE7.7 kmh ENE 9.8 mph15.8 kmh 30.10 in1019.3 mb 0.00 in0.0 mm 0.00 in0.0 mm 0.00 in0.0 mm
07:00 PM 58.5°F14.7°C 27.2°F-2.7°C 30% 5.0 mph E8.0 kmh E 9.8 mph15.8 kmh 30.10 in1019.3 mb 0.00 in0.0 mm 0.00 in0.0 mm 0.00 in0.0 mm
07:05 PM 58.3°F14.6°C 27.8°F-2.3°C 31% 5.0 mph E8.0 kmh E 13.0 mph20.9 kmh 30.10 in1019.3 mb 0.00 in0.0 mm 0.00 in0.0 mm 0.00 in0.0 mm
07:10 PM 58.1°F14.5°C 27.6°F-2.4°C 31% 5.1 mph ENE8.2 kmh ENE 13.0 mph20.9 kmh 30.10 in1019.3 mb 0.00 in0.0 mm 0.00 in0.0 mm 0.00 in0.0 mm
07:15 PM 57.9°F14.4°C 27.5°F-2.5°C 31% 4.2 mph ENE6.8 kmh ENE 9.8 mph15.8 kmh 30.10 in1019.3 mb 0.00 in0.0 mm 0.00 in0.0 mm 0.00 in0.0 mm
07:20 PM 57.7°F14.3°C 28.1°F-2.2°C 32% 3.1 mph E5.0 kmh E 7.6 mph12.2 kmh 30.10 in1019.3 mb 0.00 in0.0 mm 0.00 in0.0 mm 0.00 in0.0 mm
07:25 PM 57.6°F14.2°C 27.9°F-2.3°C 32% 2.7 mph E4.3 kmh E 6.9 mph11.1 kmh 30.10 in1019.3 mb 0.00 in0.0 mm 0.00 in0.0 mm 0.00 in0.0 mm
07:30 PM 57.2°F14.0°C 27.6°F-2.4°C 32% 2.4 mph E3.9 kmh E 6.0 mph9.7 kmh 30.10 in1019.3 mb 0.00 in0.0 mm 0.00 in0.0 mm 0.00 in0.0 mm
07:35 PM 57.0°F13.9°C 28.2°F-2.1°C 33% 1.8 mph ESE2.9 kmh ESE 4.5 mph7.2 kmh 30.10 in1019.3 mb 0.00 in0.0 mm 0.00 in0.0 mm 0.00 in0.0 mm
07:40 PM 56.1°F13.4°C 28.9°F-1.7°C 35% 1.9 mph SSE3.1 kmh SSE 4.5 mph7.2 kmh 30.10 in1019.3 mb 0.00 in0.0 mm 0.00 in0.0 mm 0.00 in0.0 mm
07:45 PM 54.7°F12.6°C 27.6°F-2.4°C 35% 2.0 mph S3.2 kmh S 3.8 mph6.1 kmh 30.10 in1019.3 mb 0.00 in0.0 mm 0.00 in0.0 mm 0.00 in0.0 mm
07:50 PM 53.4°F11.9°C 29.1°F-1.6°C 39% 1.8 mph S2.9 kmh S 3.8 mph6.1 kmh 30.10 in1019.3 mb 0.00 in0.0 mm 0.00 in0.0 mm 0.00 in0.0 mm
07:55 PM 52.5°F11.4°C 30.1°F-1.1°C 42% 2.4 mph S3.9 kmh S 5.4 mph8.7 kmh 30.11 in1019.6 mb 0.00 in0.0 mm 0.00 in0.0 mm 0.00 in0.0 mm
08:00 PM 52.2°F11.2°C 29.8°F-1.2°C 42% 3.9 mph S6.3 kmh S 7.6 mph12.2 kmh 30.11 in1019.6 mb 0.00 in0.0 mm 0.00 in0.0 mm 0.00 in0.0 mm
08:05 PM 52.2°F11.2°C 29.8°F-1.2°C 42% 4.6 mph SSW7.4 kmh SSW 7.6 mph12.2 kmh 30.11 in1019.6 mb 0.00 in0.0 mm 0.00 in0.0 mm 0.00 in0.0 mm
08:10 PM 51.8°F11.0°C 30.0°F-1.1°C 43% 4.6 mph SSW7.4 kmh SSW 9.2 mph14.8 kmh 30.11 in1019.6 mb 0.00 in0.0 mm 0.00 in0.0 mm 0.00 in0.0 mm
08:15 PM 51.8°F11.0°C 30.0°F-1.1°C 43% 4.7 mph S7.6 kmh S 9.2 mph14.8 kmh 30.11 in1019.6 mb 0.00 in0.0 mm 0.00 in0.0 mm 0.00 in0.0 mm
08:20 PM 51.8°F11.0°C 30.0°F-1.1°C 43% 3.9 mph S6.3 kmh S 9.2 mph14.8 kmh 30.11 in1019.6 mb 0.00 in0.0 mm 0.00 in0.0 mm 0.00 in0.0 mm
08:25 PM 51.8°F11.0°C 30.0°F-1.1°C 43% 3.5 mph S5.6 kmh S 6.9 mph11.1 kmh 30.11 in1019.6 mb 0.00 in0.0 mm 0.00 in0.0 mm 0.00 in0.0 mm
08:30 PM 51.6°F10.9°C 30.4°F-0.9°C 44% 3.7 mph S6.0 kmh S 6.0 mph9.7 kmh 30.12 in1020.0 mb 0.00 in0.0 mm 0.00 in0.0 mm 0.00 in0.0 mm
08:35 PM 51.6°F10.9°C 30.4°F-0.9°C 44% 4.1 mph S6.6 kmh S 6.9 mph11.1 kmh 30.12 in1020.0 mb 0.00 in0.0 mm 0.00 in0.0 mm 0.00 in0.0 mm
08:40 PM 51.6°F10.9°C 30.4°F-0.9°C 44% 4.3 mph S6.9 kmh S 6.9 mph11.1 kmh 30.12 in1020.0 mb 0.00 in0.0 mm 0.00 in0.0 mm 0.00 in0.0 mm
08:45 PM 51.6°F10.9°C 30.4°F-0.9°C 44% 4.0 mph S6.4 kmh S 6.9 mph11.1 kmh 30.12 in1020.0 mb 0.00 in0.0 mm 0.00 in0.0 mm 0.00 in0.0 mm
08:50 PM 51.6°F10.9°C 31.0°F-0.6°C 45% 4.0 mph S6.4 kmh S 6.9 mph11.1 kmh 30.12 in1020.0 mb 0.00 in0.0 mm 0.00 in0.0 mm 0.00 in0.0 mm
08:55 PM 51.6°F10.9°C 31.0°F-0.6°C 45% 4.3 mph S6.9 kmh S 7.6 mph12.2 kmh 30.12 in1020.0 mb 0.00 in0.0 mm 0.00 in0.0 mm 0.00 in0.0 mm
09:00 PM 51.6°F10.9°C 31.0°F-0.6°C 45% 4.7 mph S7.6 kmh S 7.6 mph12.2 kmh 30.13 in1020.3 mb 0.00 in0.0 mm 0.00 in0.0 mm 0.00 in0.0 mm
09:05 PM 51.6°F10.9°C 31.0°F-0.6°C 45% 4.3 mph S6.9 kmh S 7.6 mph12.2 kmh 30.13 in1020.3 mb 0.00 in0.0 mm 0.00 in0.0 mm 0.00 in0.0 mm
09:10 PM 51.4°F10.8°C 30.8°F-0.7°C 45% 3.5 mph S5.6 kmh S 6.0 mph9.7 kmh 30.13 in1020.3 mb 0.00 in0.0 mm 0.00 in0.0 mm 0.00 in0.0 mm
09:15 PM 51.4°F10.8°C 30.8°F-0.7°C 45% 2.2 mph S3.5 kmh S 5.4 mph8.7 kmh 30.13 in1020.3 mb 0.00 in0.0 mm 0.00 in0.0 mm 0.00 in0.0 mm
09:20 PM 51.6°F10.9°C 31.0°F-0.6°C 45% 1.0 mph SW1.6 kmh SW 4.5 mph7.2 kmh 30.13 in1020.3 mb 0.00 in0.0 mm 0.00 in0.0 mm 0.00 in0.0 mm
09:25 PM 52.0°F11.1°C 30.8°F-0.7°C 44% 0.6 mph SSW1.0 kmh SSW 3.8 mph6.1 kmh 30.13 in1020.3 mb 0.00 in0.0 mm 0.00 in0.0 mm 0.00 in0.0 mm
09:30 PM 52.2°F11.2°C 31.5°F-0.3°C 45% 0.7 mph S1.1 kmh S 3.8 mph6.1 kmh 30.14 in1020.7 mb 0.00 in0.0 mm 0.00 in0.0 mm 0.00 in0.0 mm
09:35 PM 52.2°F11.2°C 31.5°F-0.3°C 45% 1.2 mph SW1.9 kmh SW 3.8 mph6.1 kmh 30.14 in1020.7 mb 0.00 in0.0 mm 0.00 in0.0 mm 0.00 in0.0 mm
09:40 PM 52.5°F11.4°C 33.9°F1.1°C 49% 2.9 mph WSW4.7 kmh WSW 8.3 mph13.4 kmh 30.14 in1020.7 mb 0.00 in0.0 mm 0.00 in0.0 mm 0.00 in0.0 mm
09:45 PM 52.9°F11.6°C 36.2°F2.3°C 53% 4.6 mph WSW7.4 kmh WSW 9.2 mph14.8 kmh 30.14 in1020.7 mb 0.00 in0.0 mm 0.00 in0.0 mm 0.00 in0.0 mm
09:50 PM 53.1°F11.7°C 36.4°F2.4°C 53% 4.7 mph SW7.6 kmh SW 9.2 mph14.8 kmh 30.14 in1020.7 mb 0.00 in0.0 mm 0.00 in0.0 mm 0.00 in0.0 mm
09:55 PM 53.1°F11.7°C 36.9°F2.7°C 54% 4.7 mph SW7.6 kmh SW 7.6 mph12.2 kmh 30.14 in1020.7 mb 0.00 in0.0 mm 0.00 in0.0 mm 0.00 in0.0 mm
10:00 PM 53.2°F11.8°C 37.0°F2.8°C 54% 3.8 mph WSW6.1 kmh WSW 7.6 mph12.2 kmh 30.14 in1020.7 mb 0.00 in0.0 mm 0.00 in0.0 mm 0.00 in0.0 mm
10:05 PM 53.2°F11.8°C 37.5°F3.1°C 55% 4.0 mph WSW6.4 kmh WSW 9.8 mph15.8 kmh 30.14 in1020.7 mb 0.00 in0.0 mm 0.00 in0.0 mm 0.00 in0.0 mm
10:10 PM 53.1°F11.7°C 37.3°F2.9°C 55% 4.4 mph SW7.1 kmh SW 9.8 mph15.8 kmh 30.14 in1020.7 mb 0.00 in0.0 mm 0.00 in0.0 mm 0.00 in0.0 mm
10:15 PM 52.9°F11.6°C 37.2°F2.9°C 55% 3.6 mph SW5.8 kmh SW 7.6 mph12.2 kmh 30.14 in1020.7 mb 0.00 in0.0 mm 0.00 in0.0 mm 0.00 in0.0 mm
10:20 PM 52.7°F11.5°C 37.5°F3.1°C 56% 2.6 mph SW4.2 kmh SW 6.0 mph9.7 kmh 30.14 in1020.7 mb 0.00 in0.0 mm 0.00 in0.0 mm 0.00 in0.0 mm
10:25 PM 52.3°F11.3°C 36.7°F2.6°C 55% 1.7 mph SW2.7 kmh SW 4.5 mph7.2 kmh 30.15 in1021.0 mb 0.00 in0.0 mm 0.00 in0.0 mm 0.00 in0.0 mm
10:30 PM 52.2°F11.2°C 36.9°F2.7°C 56% 2.2 mph SW3.5 kmh SW 4.5 mph7.2 kmh 30.15 in1021.0 mb 0.00 in0.0 mm 0.00 in0.0 mm 0.00 in0.0 mm
10:35 PM 52.2°F11.2°C 36.5°F2.5°C 55% 2.4 mph SW3.9 kmh SW 4.5 mph7.2 kmh 30.15 in1021.0 mb 0.00 in0.0 mm 0.00 in0.0 mm 0.00 in0.0 mm
10:40 PM 52.0°F11.1°C 36.3°F2.4°C 55% 2.0 mph SSW3.2 kmh SSW 4.5 mph7.2 kmh 30.15 in1021.0 mb 0.00 in0.0 mm 0.00 in0.0 mm 0.00 in0.0 mm
10:45 PM 51.8°F11.0°C 36.6°F2.6°C 56% 1.9 mph SSW3.1 kmh SSW 3.8 mph6.1 kmh 30.15 in1021.0 mb 0.00 in0.0 mm 0.00 in0.0 mm 0.00 in0.0 mm
10:50 PM 51.8°F11.0°C 36.6°F2.6°C 56% 2.1 mph SSW3.4 kmh SSW 3.8 mph6.1 kmh 30.15 in1021.0 mb 0.00 in0.0 mm 0.00 in0.0 mm 0.00 in0.0 mm
10:55 PM 51.6°F10.9°C 36.9°F2.7°C 57% 1.6 mph S2.6 kmh S 3.8 mph6.1 kmh 30.15 in1021.0 mb 0.00 in0.0 mm 0.00 in0.0 mm 0.00 in0.0 mm
11:00 PM 51.3°F10.7°C 36.6°F2.6°C 57% 1.3 mph S2.1 kmh S 3.8 mph6.1 kmh 30.15 in1021.0 mb 0.00 in0.0 mm 0.00 in0.0 mm 0.00 in0.0 mm
11:05 PM 50.7°F10.4°C 36.1°F2.3°C 57% 1.8 mph S2.9 kmh S 3.8 mph6.1 kmh 30.15 in1021.0 mb 0.00 in0.0 mm 0.00 in0.0 mm 0.00 in0.0 mm
11:10 PM 50.5°F10.3°C 35.4°F1.9°C 56% 2.6 mph S4.2 kmh S 5.4 mph8.7 kmh 30.15 in1021.0 mb 0.00 in0.0 mm 0.00 in0.0 mm 0.00 in0.0 mm
11:15 PM 50.2°F10.1°C 35.1°F1.7°C 56% 3.0 mph S4.8 kmh S 5.4 mph8.7 kmh 30.15 in1021.0 mb 0.00 in0.0 mm 0.00 in0.0 mm 0.00 in0.0 mm
11:20 PM 50.0°F10.0°C 35.4°F1.9°C 57% 3.3 mph S5.3 kmh S 5.4 mph8.7 kmh 30.16 in1021.3 mb 0.00 in0.0 mm 0.00 in0.0 mm 0.00 in0.0 mm
11:25 PM 49.6°F9.8°C 35.5°F1.9°C 58% 3.3 mph S5.3 kmh S 5.4 mph8.7 kmh 30.16 in1021.3 mb 0.00 in0.0 mm 0.00 in0.0 mm 0.00 in0.0 mm
11:30 PM 49.6°F9.8°C 35.9°F2.2°C 59% 2.4 mph S3.9 kmh S 5.4 mph8.7 kmh 30.15 in1021.0 mb 0.00 in0.0 mm 0.00 in0.0 mm 0.00 in0.0 mm
11:35 PM 49.6°F9.8°C 35.9°F2.2°C 59% 1.9 mph SSE3.1 kmh SSE 3.8 mph6.1 kmh 30.16 in1021.3 mb 0.00 in0.0 mm 0.00 in0.0 mm 0.00 in0.0 mm
11:40 PM 49.3°F9.6°C 35.6°F2.0°C 59% 1.2 mph S1.9 kmh S 3.1 mph5.0 kmh 30.15 in1021.0 mb 0.00 in0.0 mm 0.00 in0.0 mm 0.00 in0.0 mm
11:45 PM 49.1°F9.5°C 35.4°F1.9°C 59% 0.6 mph SW1.0 kmh SW 2.2 mph3.5 kmh 30.15 in1021.0 mb 0.00 in0.0 mm 0.00 in0.0 mm 0.00 in0.0 mm
11:50 PM 49.3°F9.6°C 35.6°F2.0°C 59% 0.7 mph S1.1 kmh S 3.1 mph5.0 kmh 30.15 in1021.0 mb 0.00 in0.0 mm 0.00 in0.0 mm 0.00 in0.0 mm
11:55 PM 49.5°F9.7°C 35.7°F2.1°C 59% 0.6 mph SSE1.0 kmh SSE 3.1 mph5.0 kmh 30.15 in1021.0 mb 0.00 in0.0 mm 0.00 in0.0 mm 0.00 in0.0 mm